sensor_id;sensor_type;location;lat;lon;timestamp;pressure;altitude;pressure_sealevel;temperature;humidity
77526;BME280;66627;29.424;-98.496;2024-02-21T00:00:53;99437.63;;;23.71;29.77
77526;BME280;66627;29.424;-98.496;2024-02-21T00:03:15;99440.59;;;24.90;29.65
77526;BME280;66627;29.424;-98.496;2024-02-21T00:05:40;99439.83;;;24.18;29.69
77526;BME280;66627;29.424;-98.496;2024-02-21T00:08:06;99441.17;;;25.11;29.13
77526;BME280;66627;29.424;-98.496;2024-02-21T00:10:31;99439.70;;;24.32;29.67
77526;BME280;66627;29.424;-98.496;2024-02-21T00:12:57;99438.91;;;24.38;29.68
77526;BME280;66627;29.424;-98.496;2024-02-21T00:15:21;99436.48;;;24.91;29.39
77526;BME280;66627;29.424;-98.496;2024-02-21T00:17:47;99434.33;;;25.16;29.28
77526;BME280;66627;29.424;-98.496;2024-02-21T00:20:11;99431.65;;;25.49;29.12
77526;BME280;66627;29.424;-98.496;2024-02-21T00:22:37;99431.44;;;25.47;28.85
77526;BME280;66627;29.424;-98.496;2024-02-21T00:25:01;99429.83;;;25.81;28.73
77526;BME280;66627;29.424;-98.496;2024-02-21T00:27:27;99427.90;;;25.31;29.21
77526;BME280;66627;29.424;-98.496;2024-02-21T00:29:52;99428.50;;;25.38;29.02
77526;BME280;66627;29.424;-98.496;2024-02-21T00:32:17;99426.76;;;25.31;29.71
77526;BME280;66627;29.424;-98.496;2024-02-21T00:34:43;99426.00;;;25.26;29.26
77526;BME280;66627;29.424;-98.496;2024-02-21T00:37:09;99424.43;;;25.58;29.38
77526;BME280;66627;29.424;-98.496;2024-02-21T00:39:35;99423.20;;;25.13;29.66
77526;BME280;66627;29.424;-98.496;2024-02-21T00:42:00;99420.93;;;24.97;29.82
77526;BME280;66627;29.424;-98.496;2024-02-21T00:44:23;99420.37;;;25.01;30.12
77526;BME280;66627;29.424;-98.496;2024-02-21T00:46:49;99417.41;;;24.93;30.25
77526;BME280;66627;29.424;-98.496;2024-02-21T00:49:14;99415.09;;;24.84;30.23
77526;BME280;66627;29.424;-98.496;2024-02-21T00:51:40;99417.15;;;24.75;31.01
77526;BME280;66627;29.424;-98.496;2024-02-21T00:54:06;99420.46;;;24.15;31.81
77526;BME280;66627;29.424;-98.496;2024-02-21T00:56:31;99421.80;;;24.33;31.70
77526;BME280;66627;29.424;-98.496;2024-02-21T00:58:58;99426.56;;;24.63;31.46
77526;BME280;66627;29.424;-98.496;2024-02-21T01:01:23;99428.72;;;24.30;31.96
77526;BME280;66627;29.424;-98.496;2024-02-21T01:03:46;99430.60;;;24.27;32.17
77526;BME280;66627;29.424;-98.496;2024-02-21T01:06:13;99431.43;;;24.17;32.23
77526;BME280;66627;29.424;-98.496;2024-02-21T01:08:37;99432.73;;;24.15;32.46
77526;BME280;66627;29.424;-98.496;2024-02-21T01:11:03;99435.26;;;24.23;32.37
77526;BME280;66627;29.424;-98.496;2024-02-21T01:13:27;99437.26;;;23.75;33.13
77526;BME280;66627;29.424;-98.496;2024-02-21T01:15:53;99437.16;;;23.99;32.89
77526;BME280;66627;29.424;-98.496;2024-02-21T01:18:18;99437.91;;;23.95;33.07
77526;BME280;66627;29.424;-98.496;2024-02-21T01:20:44;99442.78;;;24.23;33.36
77526;BME280;66627;29.424;-98.496;2024-02-21T01:23:09;99445.92;;;23.83;33.52
77526;BME280;66627;29.424;-98.496;2024-02-21T01:25:34;99445.71;;;24.06;33.62
77526;BME280;66627;29.424;-98.496;2024-02-21T01:28:00;99448.86;;;23.82;34.06
77526;BME280;66627;29.424;-98.496;2024-02-21T01:30:25;99454.95;;;23.28;34.84
77526;BME280;66627;29.424;-98.496;2024-02-21T01:32:53;99456.47;;;23.26;34.91
77526;BME280;66627;29.424;-98.496;2024-02-21T01:35:16;99457.56;;;23.44;34.68
77526;BME280;66627;29.424;-98.496;2024-02-21T01:37:43;99456.57;;;23.08;35.06
77526;BME280;66627;29.424;-98.496;2024-02-21T01:40:10;99458.64;;;22.82;35.55
77526;BME280;66627;29.424;-98.496;2024-02-21T01:42:37;99463.34;;;22.69;36.10
77526;BME280;66627;29.424;-98.496;2024-02-21T01:44:59;99462.98;;;23.22;36.05
77526;BME280;66627;29.424;-98.496;2024-02-21T01:47:27;99464.03;;;22.24;36.65
77526;BME280;66627;29.424;-98.496;2024-02-21T01:49:52;99461.07;;;23.15;36.10
77526;BME280;66627;29.424;-98.496;2024-02-21T01:52:18;99464.56;;;23.03;36.16
77526;BME280;66627;29.424;-98.496;2024-02-21T01:54:43;99468.93;;;21.82;37.63
77526;BME280;66627;29.424;-98.496;2024-02-21T01:57:08;99468.28;;;22.47;37.16
77526;BME280;66627;29.424;-98.496;2024-02-21T01:59:33;99470.34;;;22.00;38.02
77526;BME280;66627;29.424;-98.496;2024-02-21T02:01:59;99470.57;;;22.08;37.71
77526;BME280;66627;29.424;-98.496;2024-02-21T02:04:24;99470.64;;;22.15;37.67
77526;BME280;66627;29.424;-98.496;2024-02-21T02:06:51;99470.49;;;22.78;36.97
77526;BME280;66627;29.424;-98.496;2024-02-21T02:09:14;99469.86;;;22.49;37.62
77526;BME280;66627;29.424;-98.496;2024-02-21T02:11:40;99473.20;;;21.95;38.32
77526;BME280;66627;29.424;-98.496;2024-02-21T02:14:05;99477.97;;;22.36;37.84
77526;BME280;66627;29.424;-98.496;2024-02-21T02:16:31;99479.46;;;21.81;38.13
77526;BME280;66627;29.424;-98.496;2024-02-21T02:18:56;99479.17;;;22.00;38.56
77526;BME280;66627;29.424;-98.496;2024-02-21T02:21:27;99479.89;;;21.81;38.52
77526;BME280;66627;29.424;-98.496;2024-02-21T02:23:46;99481.92;;;21.95;38.26
77526;BME280;66627;29.424;-98.496;2024-02-21T02:26:12;99483.76;;;22.13;38.41
77526;BME280;66627;29.424;-98.496;2024-02-21T02:28:38;99486.10;;;21.94;38.61
77526;BME280;66627;29.424;-98.496;2024-02-21T02:31:02;99482.69;;;21.37;39.11
77526;BME280;66627;29.424;-98.496;2024-02-21T02:33:27;99485.47;;;22.08;38.55
77526;BME280;66627;29.424;-98.496;2024-02-21T02:35:55;99487.65;;;21.54;39.38
77526;BME280;66627;29.424;-98.496;2024-02-21T02:38:18;99486.70;;;21.59;39.43
77526;BME280;66627;29.424;-98.496;2024-02-21T02:40:44;99484.63;;;20.47;40.94
77526;BME280;66627;29.424;-98.496;2024-02-21T02:43:08;99484.12;;;21.10;40.26
77526;BME280;66627;29.424;-98.496;2024-02-21T02:45:34;99487.20;;;21.33;40.24
77526;BME280;66627;29.424;-98.496;2024-02-21T02:48:00;99488.84;;;21.11;40.59
77526;BME280;66627;29.424;-98.496;2024-02-21T02:50:26;99489.79;;;20.48;41.96
77526;BME280;66627;29.424;-98.496;2024-02-21T02:52:49;99494.31;;;20.26;42.59
77526;BME280;66627;29.424;-98.496;2024-02-21T02:55:16;99501.97;;;19.92;43.32
77526;BME280;66627;29.424;-98.496;2024-02-21T02:57:40;99496.44;;;20.48;42.83
77526;BME280;66627;29.424;-98.496;2024-02-21T03:00:06;99497.71;;;20.31;43.15
77526;BME280;66627;29.424;-98.496;2024-02-21T03:02:30;99498.73;;;20.34;43.48
77526;BME280;66627;29.424;-98.496;2024-02-21T03:04:56;99498.59;;;21.02;42.60
77526;BME280;66627;29.424;-98.496;2024-02-21T03:07:21;99497.40;;;20.76;42.69
77526;BME280;66627;29.424;-98.496;2024-02-21T03:09:46;99497.23;;;20.46;43.23
77526;BME280;66627;29.424;-98.496;2024-02-21T03:12:11;99502.90;;;20.93;42.62
77526;BME280;66627;29.424;-98.496;2024-02-21T03:14:36;99505.19;;;20.54;43.23
77526;BME280;66627;29.424;-98.496;2024-02-21T03:17:01;99505.58;;;20.23;44.59
77526;BME280;66627;29.424;-98.496;2024-02-21T03:19:26;99508.46;;;19.09;47.83
77526;BME280;66627;29.424;-98.496;2024-02-21T03:21:52;99511.77;;;20.02;48.06
77526;BME280;66627;29.424;-98.496;2024-02-21T03:24:18;99513.39;;;20.07;48.28
77526;BME280;66627;29.424;-98.496;2024-02-21T03:26:42;99513.96;;;19.49;50.00
77526;BME280;66627;29.424;-98.496;2024-02-21T03:29:09;99512.84;;;19.53;50.96
77526;BME280;66627;29.424;-98.496;2024-02-21T03:31:34;99521.39;;;19.92;51.47
77526;BME280;66627;29.424;-98.496;2024-02-21T03:33:58;99524.03;;;19.71;51.60
77526;BME280;66627;29.424;-98.496;2024-02-21T03:36:24;99529.61;;;19.86;52.08
77526;BME280;66627;29.424;-98.496;2024-02-21T03:38:49;99537.75;;;19.77;52.37
77526;BME280;66627;29.424;-98.496;2024-02-21T03:41:14;99538.68;;;19.36;53.32
77526;BME280;66627;29.424;-98.496;2024-02-21T03:43:39;99543.50;;;19.45;53.69
77526;BME280;66627;29.424;-98.496;2024-02-21T03:46:04;99543.44;;;20.23;52.02
77526;BME280;66627;29.424;-98.496;2024-02-21T03:48:30;99545.94;;;19.55;53.77
77526;BME280;66627;29.424;-98.496;2024-02-21T03:50:55;99550.70;;;19.26;54.58
77526;BME280;66627;29.424;-98.496;2024-02-21T03:53:21;99553.40;;;19.37;54.70
77526;BME280;66627;29.424;-98.496;2024-02-21T03:55:47;99546.45;;;18.97;56.42
77526;BME280;66627;29.424;-98.496;2024-02-21T03:58:12;99550.73;;;19.42;55.84
77526;BME280;66627;29.424;-98.496;2024-02-21T04:00:37;99553.06;;;18.88;57.38
77526;BME280;66627;29.424;-98.496;2024-02-21T04:03:02;99554.77;;;18.63;58.95
77526;BME280;66627;29.424;-98.496;2024-02-21T04:05:28;99552.84;;;19.10;58.45
77526;BME280;66627;29.424;-98.496;2024-02-21T04:07:54;99554.13;;;19.13;58.65
77526;BME280;66627;29.424;-98.496;2024-02-21T04:10:19;99554.69;;;18.90;59.44
77526;BME280;66627;29.424;-98.496;2024-02-21T04:12:44;99553.45;;;19.04;60.53
77526;BME280;66627;29.424;-98.496;2024-02-21T04:15:09;99555.25;;;19.08;60.77
77526;BME280;66627;29.424;-98.496;2024-02-21T04:17:35;99552.17;;;18.56;62.46
77526;BME280;66627;29.424;-98.496;2024-02-21T04:20:04;99554.71;;;17.89;64.43
77526;BME280;66627;29.424;-98.496;2024-02-21T04:22:25;99550.38;;;18.76;62.56
77526;BME280;66627;29.424;-98.496;2024-02-21T04:24:51;99553.99;;;18.30;64.43
77526;BME280;66627;29.424;-98.496;2024-02-21T04:27:16;99548.37;;;18.47;64.30
77526;BME280;66627;29.424;-98.496;2024-02-21T04:29:42;99550.40;;;18.43;64.70
77526;BME280;66627;29.424;-98.496;2024-02-21T04:32:09;99551.76;;;18.16;64.63
77526;BME280;66627;29.424;-98.496;2024-02-21T04:34:35;99552.50;;;18.65;64.38
77526;BME280;66627;29.424;-98.496;2024-02-21T04:36:58;99553.84;;;18.78;64.06
77526;BME280;66627;29.424;-98.496;2024-02-21T04:39:23;99556.55;;;18.21;66.08
77526;BME280;66627;29.424;-98.496;2024-02-21T04:41:49;99561.33;;;18.18;66.00
77526;BME280;66627;29.424;-98.496;2024-02-21T04:44:14;99566.75;;;18.06;66.72
77526;BME280;66627;29.424;-98.496;2024-02-21T04:46:42;99565.65;;;18.48;65.53
77526;BME280;66627;29.424;-98.496;2024-02-21T04:49:05;99570.11;;;18.36;65.72
77526;BME280;66627;29.424;-98.496;2024-02-21T04:51:29;99566.24;;;18.61;65.50
77526;BME280;66627;29.424;-98.496;2024-02-21T04:53:55;99567.61;;;18.34;65.28
77526;BME280;66627;29.424;-98.496;2024-02-21T04:56:21;99570.07;;;18.74;64.75
77526;BME280;66627;29.424;-98.496;2024-02-21T04:58:47;99567.81;;;18.77;64.34
77526;BME280;66627;29.424;-98.496;2024-02-21T05:01:13;99578.29;;;18.20;65.78
77526;BME280;66627;29.424;-98.496;2024-02-21T05:03:39;99573.99;;;19.20;63.72
77526;BME280;66627;29.424;-98.496;2024-02-21T05:06:04;99579.90;;;19.25;62.55
77526;BME280;66627;29.424;-98.496;2024-02-21T05:08:28;99583.31;;;18.85;63.19
77526;BME280;66627;29.424;-98.496;2024-02-21T05:10:54;99583.39;;;18.92;63.26
77526;BME280;66627;29.424;-98.496;2024-02-21T05:13:19;99588.67;;;18.55;64.10
77526;BME280;66627;29.424;-98.496;2024-02-21T05:15:45;99589.48;;;19.35;61.60
77526;BME280;66627;29.424;-98.496;2024-02-21T05:18:09;99589.32;;;18.79;63.03
77526;BME280;66627;29.424;-98.496;2024-02-21T05:20:36;99588.11;;;19.21;62.16
77526;BME280;66627;29.424;-98.496;2024-02-21T05:23:00;99592.38;;;18.58;64.07
77526;BME280;66627;29.424;-98.496;2024-02-21T05:25:27;99596.71;;;18.34;64.19
77526;BME280;66627;29.424;-98.496;2024-02-21T05:30:18;99595.45;;;18.42;64.33
77526;BME280;66627;29.424;-98.496;2024-02-21T05:32:42;99597.24;;;18.55;63.84
77526;BME280;66627;29.424;-98.496;2024-02-21T05:35:09;99599.03;;;18.93;62.65
77526;BME280;66627;29.424;-98.496;2024-02-21T05:37:33;99595.67;;;19.13;61.66
77526;BME280;66627;29.424;-98.496;2024-02-21T05:39:59;99596.18;;;18.98;61.51
77526;BME280;66627;29.424;-98.496;2024-02-21T05:42:24;99598.37;;;19.11;60.77
77526;BME280;66627;29.424;-98.496;2024-02-21T05:44:49;99599.78;;;19.18;59.95
77526;BME280;66627;29.424;-98.496;2024-02-21T05:47:14;99606.58;;;18.49;61.32
77526;BME280;66627;29.424;-98.496;2024-02-21T05:49:41;99604.47;;;18.72;60.36
77526;BME280;66627;29.424;-98.496;2024-02-21T05:52:14;99607.29;;;18.79;60.96
77526;BME280;66627;29.424;-98.496;2024-02-21T05:54:32;99602.97;;;19.06;60.83
77526;BME280;66627;29.424;-98.496;2024-02-21T05:56:58;99606.17;;;18.93;61.16
77526;BME280;66627;29.424;-98.496;2024-02-21T05:59:22;99600.10;;;19.08;61.31
77526;BME280;66627;29.424;-98.496;2024-02-21T06:01:55;99596.92;;;19.17;60.81
77526;BME280;66627;29.424;-98.496;2024-02-21T06:04:19;99599.09;;;18.44;61.56
77526;BME280;66627;29.424;-98.496;2024-02-21T06:06:38;99598.70;;;18.53;61.43
77526;BME280;66627;29.424;-98.496;2024-02-21T06:09:04;99596.70;;;19.10;60.28
77526;BME280;66627;29.424;-98.496;2024-02-21T06:11:30;99600.06;;;18.44;61.53
77526;BME280;66627;29.424;-98.496;2024-02-21T06:13:55;99599.12;;;18.05;62.06
77526;BME280;66627;29.424;-98.496;2024-02-21T06:16:21;99592.83;;;18.36;60.75
77526;BME280;66627;29.424;-98.496;2024-02-21T06:18:46;99592.02;;;18.72;61.32
77526;BME280;66627;29.424;-98.496;2024-02-21T06:21:13;99588.45;;;18.39;61.46
77526;BME280;66627;29.424;-98.496;2024-02-21T06:23:38;99588.65;;;18.38;61.90
77526;BME280;66627;29.424;-98.496;2024-02-21T06:26:01;99585.36;;;18.97;61.75
77526;BME280;66627;29.424;-98.496;2024-02-21T06:28:28;99584.18;;;17.59;65.04
77526;BME280;66627;29.424;-98.496;2024-02-21T06:30:53;99586.42;;;18.00;63.28
77526;BME280;66627;29.424;-98.496;2024-02-21T06:33:18;99586.08;;;18.09;62.57
77526;BME280;66627;29.424;-98.496;2024-02-21T06:35:43;99585.79;;;18.02;62.82
77526;BME280;66627;29.424;-98.496;2024-02-21T06:38:10;99583.01;;;18.09;61.82
77526;BME280;66627;29.424;-98.496;2024-02-21T06:40:35;99583.26;;;18.15;61.55
77526;BME280;66627;29.424;-98.496;2024-02-21T06:43:00;99581.57;;;17.47;61.77
77526;BME280;66627;29.424;-98.496;2024-02-21T06:45:25;99574.83;;;17.84;61.93
77526;BME280;66627;29.424;-98.496;2024-02-21T06:47:51;99574.94;;;17.75;61.90
77526;BME280;66627;29.424;-98.496;2024-02-21T06:50:16;99572.44;;;17.81;61.17
77526;BME280;66627;29.424;-98.496;2024-02-21T06:52:41;99568.10;;;17.67;60.80
77526;BME280;66627;29.424;-98.496;2024-02-21T06:55:07;99567.21;;;17.38;61.56
77526;BME280;66627;29.424;-98.496;2024-02-21T06:57:32;99562.46;;;18.00;61.44
77526;BME280;66627;29.424;-98.496;2024-02-21T06:59:57;99558.61;;;18.14;60.50
77526;BME280;66627;29.424;-98.496;2024-02-21T07:02:24;99556.16;;;17.88;60.79
77526;BME280;66627;29.424;-98.496;2024-02-21T07:04:49;99555.52;;;17.01;64.12
77526;BME280;66627;29.424;-98.496;2024-02-21T07:07:13;99555.40;;;17.38;62.91
77526;BME280;66627;29.424;-98.496;2024-02-21T07:09:39;99553.14;;;17.13;63.15
77526;BME280;66627;29.424;-98.496;2024-02-21T07:12:05;99553.65;;;16.78;64.71
77526;BME280;66627;29.424;-98.496;2024-02-21T07:14:29;99553.76;;;16.69;63.86
77526;BME280;66627;29.424;-98.496;2024-02-21T07:16:55;99549.08;;;17.20;62.77
77526;BME280;66627;29.424;-98.496;2024-02-21T07:19:21;99543.99;;;16.77;63.47
77526;BME280;66627;29.424;-98.496;2024-02-21T07:21:46;99543.73;;;17.40;61.77
77526;BME280;66627;29.424;-98.496;2024-02-21T07:24:13;99545.49;;;16.65;63.21
77526;BME280;66627;29.424;-98.496;2024-02-21T07:26:43;99541.03;;;16.88;62.77
77526;BME280;66627;29.424;-98.496;2024-02-21T07:29:04;99539.90;;;16.74;63.29
77526;BME280;66627;29.424;-98.496;2024-02-21T07:31:30;99542.24;;;15.66;68.46
77526;BME280;66627;29.424;-98.496;2024-02-21T07:33:54;99541.28;;;16.12;66.58
77526;BME280;66627;29.424;-98.496;2024-02-21T07:36:27;99539.22;;;15.82;66.01
77526;BME280;66627;29.424;-98.496;2024-02-21T07:38:46;99540.75;;;15.48;68.93
77526;BME280;66627;29.424;-98.496;2024-02-21T07:41:11;99540.22;;;15.55;68.96
77526;BME280;66627;29.424;-98.496;2024-02-21T07:43:37;99537.35;;;16.67;65.69
77526;BME280;66627;29.424;-98.496;2024-02-21T07:46:02;99535.80;;;16.26;66.00
77526;BME280;66627;29.424;-98.496;2024-02-21T07:48:27;99537.57;;;16.22;65.56
77526;BME280;66627;29.424;-98.496;2024-02-21T07:50:52;99542.50;;;15.62;68.00
77526;BME280;66627;29.424;-98.496;2024-02-21T07:53:19;99540.51;;;16.12;64.91
77526;BME280;66627;29.424;-98.496;2024-02-21T07:55:43;99541.04;;;15.83;67.75
77526;BME280;66627;29.424;-98.496;2024-02-21T07:58:08;99536.37;;;16.01;66.59
77526;BME280;66627;29.424;-98.496;2024-02-21T08:00:33;99538.34;;;15.91;65.03
77526;BME280;66627;29.424;-98.496;2024-02-21T08:02:59;99535.07;;;16.75;64.09
77526;BME280;66627;29.424;-98.496;2024-02-21T08:05:25;99536.31;;;16.37;64.21
77526;BME280;66627;29.424;-98.496;2024-02-21T08:07:50;99535.02;;;16.23;63.17
77526;BME280;66627;29.424;-98.496;2024-02-21T08:10:16;99529.21;;;16.23;63.52
77526;BME280;66627;29.424;-98.496;2024-02-21T08:12:42;99526.84;;;16.55;62.59
77526;BME280;66627;29.424;-98.496;2024-02-21T08:15:08;99525.80;;;16.15;63.08
77526;BME280;66627;29.424;-98.496;2024-02-21T08:17:33;99521.16;;;16.42;62.47
77526;BME280;66627;29.424;-98.496;2024-02-21T08:19:58;99519.08;;;16.35;62.72
77526;BME280;66627;29.424;-98.496;2024-02-21T08:22:24;99515.59;;;16.47;62.23
77526;BME280;66627;29.424;-98.496;2024-02-21T08:24:50;99517.97;;;16.27;62.37
77526;BME280;66627;29.424;-98.496;2024-02-21T08:27:14;99513.76;;;16.22;62.15
77526;BME280;66627;29.424;-98.496;2024-02-21T08:29:39;99511.92;;;15.64;64.23
77526;BME280;66627;29.424;-98.496;2024-02-21T08:32:05;99505.83;;;15.89;62.86
77526;BME280;66627;29.424;-98.496;2024-02-21T08:34:31;99505.07;;;16.28;61.87
77526;BME280;66627;29.424;-98.496;2024-02-21T08:36:55;99504.68;;;16.32;62.27
77526;BME280;66627;29.424;-98.496;2024-02-21T08:39:21;99501.62;;;16.21;62.41
77526;BME280;66627;29.424;-98.496;2024-02-21T08:41:47;99500.82;;;16.42;61.90
77526;BME280;66627;29.424;-98.496;2024-02-21T08:44:12;99498.88;;;16.36;62.02
77526;BME280;66627;29.424;-98.496;2024-02-21T08:46:37;99496.21;;;15.99;62.70
77526;BME280;66627;29.424;-98.496;2024-02-21T08:49:02;99492.21;;;16.64;61.93
77526;BME280;66627;29.424;-98.496;2024-02-21T08:51:28;99488.74;;;16.18;62.66
77526;BME280;66627;29.424;-98.496;2024-02-21T08:53:54;99486.23;;;15.73;63.55
77526;BME280;66627;29.424;-98.496;2024-02-21T08:56:18;99483.75;;;15.87;63.17
77526;BME280;66627;29.424;-98.496;2024-02-21T08:58:44;99485.11;;;16.02;62.53
77526;BME280;66627;29.424;-98.496;2024-02-21T09:01:09;99483.79;;;15.86;62.89
77526;BME280;66627;29.424;-98.496;2024-02-21T09:03:37;99483.11;;;15.91;62.96
77526;BME280;66627;29.424;-98.496;2024-02-21T09:06:01;99483.75;;;14.70;66.68
77526;BME280;66627;29.424;-98.496;2024-02-21T09:08:26;99484.13;;;15.51;64.83
77526;BME280;66627;29.424;-98.496;2024-02-21T09:10:50;99484.52;;;16.02;64.02
77526;BME280;66627;29.424;-98.496;2024-02-21T09:13:16;99482.95;;;16.42;64.54
77526;BME280;66627;29.424;-98.496;2024-02-21T09:15:43;99479.07;;;16.48;64.22
77526;BME280;66627;29.424;-98.496;2024-02-21T09:18:07;99473.01;;;16.69;64.57
77526;BME280;66627;29.424;-98.496;2024-02-21T09:20:33;99473.78;;;16.79;64.95
77526;BME280;66627;29.424;-98.496;2024-02-21T09:22:59;99471.21;;;16.73;65.06
77526;BME280;66627;29.424;-98.496;2024-02-21T09:25:25;99469.08;;;16.57;66.17
77526;BME280;66627;29.424;-98.496;2024-02-21T09:27:50;99467.55;;;16.76;66.23
77526;BME280;66627;29.424;-98.496;2024-02-21T09:30:16;99467.80;;;16.00;67.32
77526;BME280;66627;29.424;-98.496;2024-02-21T09:32:43;99464.61;;;16.54;67.06
77526;BME280;66627;29.424;-98.496;2024-02-21T09:35:08;99463.27;;;16.79;65.84
77526;BME280;66627;29.424;-98.496;2024-02-21T09:37:34;99462.13;;;16.88;66.29
77526;BME280;66627;29.424;-98.496;2024-02-21T09:39:58;99460.68;;;16.87;66.74
77526;BME280;66627;29.424;-98.496;2024-02-21T09:42:30;99459.27;;;17.20;66.69
77526;BME280;66627;29.424;-98.496;2024-02-21T09:44:49;99458.03;;;17.53;66.13
77526;BME280;66627;29.424;-98.496;2024-02-21T09:47:22;99457.97;;;17.26;67.01
77526;BME280;66627;29.424;-98.496;2024-02-21T09:49:41;99453.08;;;17.65;66.14
77526;BME280;66627;29.424;-98.496;2024-02-21T09:52:06;99453.02;;;17.83;65.86
77526;BME280;66627;29.424;-98.496;2024-02-21T09:54:30;99456.86;;;17.58;65.96
77526;BME280;66627;29.424;-98.496;2024-02-21T09:56:56;99451.44;;;18.08;65.46
77526;BME280;66627;29.424;-98.496;2024-02-21T09:59:24;99455.56;;;18.05;65.78
77526;BME280;66627;29.424;-98.496;2024-02-21T10:01:46;99449.61;;;17.95;65.39
77526;BME280;66627;29.424;-98.496;2024-02-21T10:04:12;99450.56;;;17.68;67.08
77526;BME280;66627;29.424;-98.496;2024-02-21T10:06:37;99456.86;;;17.18;68.96
77526;BME280;66627;29.424;-98.496;2024-02-21T10:09:02;99449.87;;;17.53;67.32
77526;BME280;66627;29.424;-98.496;2024-02-21T10:11:28;99451.95;;;17.91;67.31
77526;BME280;66627;29.424;-98.496;2024-02-21T10:14:03;99449.42;;;17.85;66.71
77526;BME280;66627;29.424;-98.496;2024-02-21T10:16:20;99450.62;;;17.93;67.42
77526;BME280;66627;29.424;-98.496;2024-02-21T10:18:44;99447.20;;;18.42;66.10
77526;BME280;66627;29.424;-98.496;2024-02-21T10:21:09;99449.89;;;17.90;67.51
77526;BME280;66627;29.424;-98.496;2024-02-21T10:23:45;99450.07;;;18.15;66.39
77526;BME280;66627;29.424;-98.496;2024-02-21T10:26:06;99453.25;;;18.35;66.42
77526;BME280;66627;29.424;-98.496;2024-02-21T10:28:27;99458.79;;;17.81;67.59
77526;BME280;66627;29.424;-98.496;2024-02-21T10:30:51;99462.14;;;17.19;69.55
77526;BME280;66627;29.424;-98.496;2024-02-21T10:33:18;99459.51;;;17.54;69.34
77526;BME280;66627;29.424;-98.496;2024-02-21T10:35:42;99459.84;;;18.02;68.16
77526;BME280;66627;29.424;-98.496;2024-02-21T10:38:08;99457.69;;;17.45;69.19
77526;BME280;66627;29.424;-98.496;2024-02-21T10:40:33;99459.64;;;17.59;68.41
77526;BME280;66627;29.424;-98.496;2024-02-21T10:42:59;99456.08;;;17.70;69.35
77526;BME280;66627;29.424;-98.496;2024-02-21T10:45:29;99455.87;;;17.28;69.49
77526;BME280;66627;29.424;-98.496;2024-02-21T10:47:52;99451.59;;;17.94;68.36
77526;BME280;66627;29.424;-98.496;2024-02-21T10:50:17;99452.72;;;17.67;69.32
77526;BME280;66627;29.424;-98.496;2024-02-21T10:52:47;99452.00;;;17.77;69.80
77526;BME280;66627;29.424;-98.496;2024-02-21T10:55:10;99449.65;;;17.90;68.90
77526;BME280;66627;29.424;-98.496;2024-02-21T10:57:32;99450.22;;;18.61;67.54
77526;BME280;66627;29.424;-98.496;2024-02-21T10:59:59;99453.99;;;17.22;69.66
77526;BME280;66627;29.424;-98.496;2024-02-21T11:02:23;99457.88;;;17.35;70.04
77526;BME280;66627;29.424;-98.496;2024-02-21T11:04:49;99455.66;;;18.15;68.16
77526;BME280;66627;29.424;-98.496;2024-02-21T11:07:14;99456.14;;;18.15;68.00
77526;BME280;66627;29.424;-98.496;2024-02-21T11:09:39;99456.06;;;18.85;67.43
77526;BME280;66627;29.424;-98.496;2024-02-21T11:12:06;99458.43;;;18.54;67.03
77526;BME280;66627;29.424;-98.496;2024-02-21T11:14:30;99459.49;;;17.57;69.63
77526;BME280;66627;29.424;-98.496;2024-02-21T11:16:57;99457.93;;;18.09;68.10
77526;BME280;66627;29.424;-98.496;2024-02-21T11:19:24;99466.54;;;17.65;69.10
77526;BME280;66627;29.424;-98.496;2024-02-21T11:21:47;99472.02;;;17.64;70.58
77526;BME280;66627;29.424;-98.496;2024-02-21T11:24:13;99473.93;;;17.43;70.99
77526;BME280;66627;29.424;-98.496;2024-02-21T11:26:39;99479.48;;;17.02;71.79
77526;BME280;66627;29.424;-98.496;2024-02-21T11:29:04;99477.22;;;17.69;70.34
77526;BME280;66627;29.424;-98.496;2024-02-21T11:31:39;99477.14;;;17.68;70.99
77526;BME280;66627;29.424;-98.496;2024-02-21T11:33:54;99479.27;;;17.64;71.43
77526;BME280;66627;29.424;-98.496;2024-02-21T11:36:24;99486.44;;;16.96;72.52
77526;BME280;66627;29.424;-98.496;2024-02-21T11:38:44;99488.84;;;16.60;75.90
77526;BME280;66627;29.424;-98.496;2024-02-21T11:41:10;99493.73;;;17.44;73.69
77526;BME280;66627;29.424;-98.496;2024-02-21T11:43:36;99486.64;;;17.64;71.96
77526;BME280;66627;29.424;-98.496;2024-02-21T11:46:02;99487.68;;;17.39;71.62
77526;BME280;66627;29.424;-98.496;2024-02-21T11:48:27;99484.48;;;17.57;71.21
77526;BME280;66627;29.424;-98.496;2024-02-21T11:50:56;99481.90;;;18.35;69.71
77526;BME280;66627;29.424;-98.496;2024-02-21T11:53:18;99483.31;;;17.67;70.07
77526;BME280;66627;29.424;-98.496;2024-02-21T11:55:42;99481.23;;;17.83;70.06
77526;BME280;66627;29.424;-98.496;2024-02-21T11:58:08;99474.89;;;17.47;71.50
77526;BME280;66627;29.424;-98.496;2024-02-21T12:00:33;99476.70;;;16.71;72.76
77526;BME280;66627;29.424;-98.496;2024-02-21T12:03:00;99481.84;;;17.22;72.66
77526;BME280;66627;29.424;-98.496;2024-02-21T12:05:24;99489.73;;;16.97;72.76
77526;BME280;66627;29.424;-98.496;2024-02-21T12:07:49;99491.17;;;17.44;71.51
77526;BME280;66627;29.424;-98.496;2024-02-21T12:10:14;99489.35;;;17.57;70.88
77526;BME280;66627;29.424;-98.496;2024-02-21T12:12:40;99493.49;;;17.29;72.00
77526;BME280;66627;29.424;-98.496;2024-02-21T12:15:06;99488.12;;;17.77;70.41
77526;BME280;66627;29.424;-98.496;2024-02-21T12:17:32;99485.69;;;18.29;69.29
77526;BME280;66627;29.424;-98.496;2024-02-21T12:19:57;99494.79;;;17.68;71.24
77526;BME280;66627;29.424;-98.496;2024-02-21T12:22:21;99492.13;;;17.81;70.22
77526;BME280;66627;29.424;-98.496;2024-02-21T12:24:46;99491.80;;;17.50;71.00
77526;BME280;66627;29.424;-98.496;2024-02-21T12:27:12;99491.33;;;17.53;71.21
77526;BME280;66627;29.424;-98.496;2024-02-21T12:29:38;99492.99;;;17.80;69.79
77526;BME280;66627;29.424;-98.496;2024-02-21T12:32:04;99491.70;;;18.29;69.58